Time;durP1;ratioP1;P1;durP2;ratioP2;P2;SDS_P1;SDS_P2;PMS_P1;PMS_P2;Temp;Humidity;BMP_temperature;BMP_pressure;BME280_temperature;BME280_humidity;BME280_pressure;Samples;Min_cycle;Max_cycle;Signal;HPM_P1;HPM_P2
2021/12/29 00:01:46;;;;;;;9.95;2.50;;;;;;;;;;4964533;28;20126;-67
2021/12/29 00:04:31;;;;;;;6.45;1.75;;;;;;;;;;4976773;28;20026;-67
2021/12/29 00:07:17;;;;;;;9.43;2.10;;;;;;;;;;4991063;28;20121;-67
2021/12/29 00:10:03;;;;;;;9.82;2.17;;;;;;;;;;4970483;28;20041;-67
2021/12/29 00:12:52;;;;;;;11.02;2.55;;;;;;;;;;4958328;28;20038;-66
2021/12/29 00:15:37;;;;;;;6.15;2.15;;;;;;;;;;4981854;28;20113;-68
2021/12/29 00:18:24;;;;;;;4.90;1.52;;;;;;;;;;4977570;28;20058;-66
2021/12/29 00:21:10;;;;;;;3.80;1.50;;;;;;;;;;4957720;28;20034;-67
2021/12/29 00:23:59;;;;;;;4.13;1.20;;;;;;;;;;4971679;28;20118;-69
2021/12/29 00:26:44;;;;;;;6.07;2.17;;;;;;;;;;4988782;28;20045;-69
2021/12/29 00:29:29;;;;;;;3.75;1.33;;;;;;;;;;4996207;28;20125;-69
2021/12/29 00:32:14;;;;;;;4.07;1.48;;;;;;;;;;4976599;28;20080;-68
2021/12/29 00:35:00;;;;;;;5.70;1.33;;;;;;;;;;4958540;28;20027;-68
2021/12/29 00:37:45;;;;;;;5.05;1.92;;;;;;;;;;4958344;28;20035;-64
2021/12/29 00:40:30;;;;;;;3.85;1.30;;;;;;;;;;4982071;28;20061;-73
2021/12/29 00:43:16;;;;;;;5.80;1.40;;;;;;;;;;4964060;28;20081;-74
2021/12/29 00:46:01;;;;;;;3.58;1.55;;;;;;;;;;4976687;28;20045;-73
2021/12/29 00:48:48;;;;;;;5.57;1.67;;;;;;;;;;4977093;28;20560;-73
2021/12/29 00:51:33;;;;;;;4.00;1.65;;;;;;;;;;4989718;28;20121;-72
2021/12/29 00:54:18;;;;;;;7.63;1.33;;;;;;;;;;4976505;28;20041;-72
2021/12/29 00:57:03;;;;;;;5.20;1.20;;;;;;;;;;4989715;28;20473;-63
2021/12/29 00:59:49;;;;;;;5.45;1.33;;;;;;;;;;4982914;28;20069;-72
2021/12/29 01:02:34;;;;;;;3.45;1.05;;;;;;;;;;4956859;28;20035;-72
2021/12/29 01:05:20;;;;;;;4.28;1.25;;;;;;;;;;4976701;28;20037;-74
2021/12/29 01:08:05;;;;;;;3.92;1.30;;;;;;;;;;4962318;28;20041;-73
2021/12/29 01:10:51;;;;;;;3.03;1.50;;;;;;;;;;4987338;28;20034;-71
2021/12/29 01:13:44;;;;;;;6.68;1.65;;;;;;;;;;4988933;28;20038;-73
2021/12/29 01:19:20;;;;;;;4.80;1.10;;;;;;;;;;4976466;28;20034;-64
2021/12/29 01:22:06;;;;;;;4.35;1.67;;;;;;;;;;4975651;28;20026;-66
2021/12/29 01:24:51;;;;;;;5.72;1.38;;;;;;;;;;4976001;28;20053;-64
2021/12/29 01:27:36;;;;;;;5.10;1.10;;;;;;;;;;4967832;28;20545;-63
2021/12/29 01:30:21;;;;;;;3.58;1.20;;;;;;;;;;4976128;28;20053;-63
2021/12/29 01:33:07;;;;;;;3.28;1.25;;;;;;;;;;4968901;28;20065;-61
2021/12/29 01:35:52;;;;;;;2.90;1.15;;;;;;;;;;4976461;28;20124;-71
2021/12/29 01:38:37;;;;;;;4.07;1.00;;;;;;;;;;4989289;28;20033;-67
2021/12/29 01:41:23;;;;;;;3.60;1.00;;;;;;;;;;4961098;28;20133;-71
2021/12/29 01:44:10;;;;;;;2.08;0.80;;;;;;;;;;4975574;28;20030;-68
2021/12/29 01:46:56;;;;;;;4.07;1.10;;;;;;;;;;4976319;28;20074;-68
2021/12/29 01:49:44;;;;;;;3.47;1.00;;;;;;;;;;4988927;28;20046;-71
2021/12/29 01:52:35;;;;;;;5.65;1.08;;;;;;;;;;4975980;28;20033;-73
2021/12/29 01:55:25;;;;;;;4.65;0.80;;;;;;;;;;4988229;28;20042;-64
2021/12/29 01:58:10;;;;;;;4.68;1.02;;;;;;;;;;4975854;28;20204;-61
2021/12/29 02:00:57;;;;;;;2.63;1.00;;;;;;;;;;4973794;28;20393;-62
2021/12/29 02:03:42;;;;;;;4.85;1.88;;;;;;;;;;4989338;28;20066;-63
2021/12/29 02:06:28;;;;;;;3.92;1.20;;;;;;;;;;4963256;28;20598;-63
2021/12/29 02:09:13;;;;;;;2.38;1.13;;;;;;;;;;4987844;28;20025;-71
2021/12/29 02:11:59;;;;;;;3.97;1.00;;;;;;;;;;4975568;28;20113;-70
2021/12/29 02:14:44;;;;;;;2.78;1.30;;;;;;;;;;4987797;28;20026;-68
2021/12/29 02:17:29;;;;;;;3.33;0.60;;;;;;;;;;4975068;28;20022;-68
2021/12/29 02:20:18;;;;;;;3.83;0.95;;;;;;;;;;4968734;28;20026;-68
2021/12/29 02:23:20;;;;;;;2.17;0.80;;;;;;;;;;4975491;28;20026;-71
2021/12/29 02:26:05;;;;;;;2.47;0.93;;;;;;;;;;4974691;28;20026;-69
2021/12/29 02:28:50;;;;;;;1.70;0.75;;;;;;;;;;4992658;28;20466;-70
2021/12/29 02:31:36;;;;;;;2.25;0.70;;;;;;;;;;4978441;28;20031;-68
2021/12/29 02:34:22;;;;;;;3.85;0.80;;;;;;;;;;4978879;28;20031;-70
2021/12/29 02:37:07;;;;;;;0.47;0.47;;;;;;;;;;4998727;28;20026;-67
2021/12/29 02:39:53;;;;;;;4.13;0.68;;;;;;;;;;4965928;28;20026;-69
2021/12/29 02:42:41;;;;;;;2.63;0.60;;;;;;;;;;4959681;28;20041;-67
2021/12/29 02:45:27;;;;;;;2.15;0.60;;;;;;;;;;4961519;28;20030;-67
2021/12/29 02:48:12;;;;;;;3.90;0.80;;;;;;;;;;4992704;28;20022;-63
2021/12/29 02:50:59;;;;;;;3.80;0.98;;;;;;;;;;4964881;28;20405;-61
2021/12/29 02:53:44;;;;;;;2.10;0.60;;;;;;;;;;4978549;28;20034;-62
2021/12/29 02:56:30;;;;;;;1.65;0.70;;;;;;;;;;4991376;28;20108;-62
2021/12/29 02:59:16;;;;;;;1.25;0.60;;;;;;;;;;4978891;28;20056;-63
2021/12/29 03:02:01;;;;;;;1.45;0.60;;;;;;;;;;4991617;28;20060;-65
2021/12/29 03:04:47;;;;;;;1.40;0.60;;;;;;;;;;4961424;28;20026;-71
2021/12/29 03:07:32;;;;;;;1.90;0.75;;;;;;;;;;4982402;28;20030;-71
2021/12/29 03:10:17;;;;;;;2.38;0.82;;;;;;;;;;4994050;28;20060;-71
2021/12/29 03:13:02;;;;;;;3.42;0.75;;;;;;;;;;4991300;28;20030;-69
2021/12/29 03:15:48;;;;;;;1.38;0.65;;;;;;;;;;4992106;28;20038;-69
2021/12/29 03:18:33;;;;;;;1.38;0.57;;;;;;;;;;4991139;28;20022;-70
2021/12/29 03:21:19;;;;;;;1.35;0.45;;;;;;;;;;4991871;28;20104;-70
2021/12/29 03:24:04;;;;;;;1.02;0.63;;;;;;;;;;4991753;28;20027;-67
2021/12/29 03:26:50;;;;;;;1.02;0.70;;;;;;;;;;4977918;28;20018;-72
2021/12/29 03:29:35;;;;;;;2.15;0.63;;;;;;;;;;4972536;28;20023;-72
2021/12/29 03:32:35;;;;;;;0.95;0.50;;;;;;;;;;4961465;28;20544;-71
2021/12/29 03:35:21;;;;;;;1.75;0.93;;;;;;;;;;4958742;28;20031;-73
2021/12/29 03:38:08;;;;;;;2.50;0.50;;;;;;;;;;4978944;28;20023;-72
2021/12/29 03:40:54;;;;;;;0.77;0.70;;;;;;;;;;4986033;28;20049;-74
2021/12/29 03:43:40;;;;;;;2.33;0.50;;;;;;;;;;4963950;28;20111;-73
2021/12/29 03:46:26;;;;;;;1.65;0.52;;;;;;;;;;4978087;28;20026;-68
2021/12/29 03:49:11;;;;;;;1.15;0.60;;;;;;;;;;4971388;28;20034;-71
2021/12/29 03:51:58;;;;;;;0.98;0.45;;;;;;;;;;4977444;28;20418;-67
2021/12/29 03:54:43;;;;;;;2.00;0.50;;;;;;;;;;4961681;28;20038;-68
2021/12/29 03:57:28;;;;;;;0.40;0.40;;;;;;;;;;4972167;28;20386;-68
2021/12/29 04:00:15;;;;;;;0.85;0.60;;;;;;;;;;4990087;28;20022;-68
2021/12/29 04:03:01;;;;;;;2.03;0.60;;;;;;;;;;4977424;28;20351;-68
2021/12/29 04:05:47;;;;;;;0.75;0.55;;;;;;;;;;4977942;28;20447;-69
2021/12/29 04:08:32;;;;;;;0.47;0.40;;;;;;;;;;4977174;28;20088;-69
2021/12/29 04:11:18;;;;;;;0.77;0.50;;;;;;;;;;4968053;28;20022;-67
2021/12/29 04:14:04;;;;;;;2.20;0.75;;;;;;;;;;4966384;28;20037;-69
2021/12/29 04:16:49;;;;;;;0.82;0.57;;;;;;;;;;4977653;28;20022;-67
2021/12/29 04:20:54;;;;;;;2.60;0.80;;;;;;;;;;4976395;28;20080;-66
2021/12/29 04:22:46;;;;;;;0.70;0.65;;;;;;;;;;4977292;28;20034;-63
2021/12/29 04:25:35;;;;;;;0.63;0.50;;;;;;;;;;4989908;28;20065;-65
2021/12/29 04:28:23;;;;;;;1.30;0.40;;;;;;;;;;4990721;28;20055;-61
2021/12/29 04:31:10;;;;;;;4.22;0.60;;;;;;;;;;4976423;28;20026;-62
2021/12/29 04:33:55;;;;;;;1.27;0.50;;;;;;;;;;4976729;28;20126;-62
2021/12/29 04:36:40;;;;;;;0.73;0.55;;;;;;;;;;4958553;28;20078;-63
2021/12/29 04:39:25;;;;;;;0.55;0.45;;;;;;;;;;4974027;28;20117;-61
2021/12/29 04:42:11;;;;;;;1.10;0.60;;;;;;;;;;4957754;28;20050;-65
2021/12/29 04:44:56;;;;;;;5.53;0.63;;;;;;;;;;4967532;28;20615;-67
2021/12/29 04:47:43;;;;;;;0.88;0.60;;;;;;;;;;4963068;28;20088;-67
2021/12/29 04:50:36;;;;;;;2.78;1.27;;;;;;;;;;4974875;28;20052;-67
2021/12/29 04:53:23;;;;;;;0.57;0.55;;;;;;;;;;4990014;28;20046;-66
2021/12/29 04:56:08;;;;;;;2.10;0.80;;;;;;;;;;4989429;28;20061;-73
2021/12/29 04:58:53;;;;;;;1.55;0.82;;;;;;;;;;4977130;28;20037;-71
2021/12/29 05:01:39;;;;;;;0.82;0.52;;;;;;;;;;4975822;28;20121;-73
2021/12/29 05:04:32;;;;;;;1.83;0.75;;;;;;;;;;4976828;28;20018;-71
2021/12/29 05:10:21;;;;;;;1.20;0.60;;;;;;;;;;4976453;28;20569;-72
2021/12/29 05:13:06;;;;;;;2.40;0.90;;;;;;;;;;4975861;28;20379;-74
2021/12/29 05:15:51;;;;;;;3.33;0.70;;;;;;;;;;4982208;28;20360;-67
2021/12/29 05:18:37;;;;;;;1.08;0.70;;;;;;;;;;4990676;28;20026;-62
2021/12/29 05:21:23;;;;;;;2.47;0.70;;;;;;;;;;4989090;28;20084;-63
2021/12/29 05:24:08;;;;;;;3.00;0.90;;;;;;;;;;4976142;28;20044;-62
2021/12/29 05:26:54;;;;;;;1.65;0.63;;;;;;;;;;4988876;28;20052;-63
2021/12/29 05:29:39;;;;;;;2.92;0.60;;;;;;;;;;4989344;28;20466;-63
2021/12/29 05:32:25;;;;;;;1.33;0.70;;;;;;;;;;4975048;28;20473;-68
2021/12/29 05:35:10;;;;;;;4.82;1.10;;;;;;;;;;4989755;28;20117;-73
2021/12/29 05:37:56;;;;;;;6.32;1.20;;;;;;;;;;4966741;28;20081;-76
2021/12/29 05:40:42;;;;;;;7.30;1.20;;;;;;;;;;4969642;28;20019;-74
2021/12/29 05:43:27;;;;;;;5.70;0.70;;;;;;;;;;4975047;28;20026;-73
2021/12/29 05:46:13;;;;;;;1.73;0.85;;;;;;;;;;4956207;28;20474;-74
2021/12/29 05:48:58;;;;;;;4.28;1.00;;;;;;;;;;4963255;28;20030;-74
2021/12/29 05:51:43;;;;;;;2.72;0.90;;;;;;;;;;4956556;28;20037;-74
2021/12/29 05:54:28;;;;;;;3.63;0.98;;;;;;;;;;4972215;28;20034;-68
2021/12/29 05:57:14;;;;;;;5.13;0.98;;;;;;;;;;4976090;28;20030;-71
2021/12/29 05:59:59;;;;;;;1.13;0.85;;;;;;;;;;4988489;28;20542;-69
2021/12/29 06:02:45;;;;;;;4.30;0.80;;;;;;;;;;4974733;28;20018;-69
2021/12/29 06:05:30;;;;;;;3.45;1.00;;;;;;;;;;4956668;28;20398;-70
2021/12/29 06:08:15;;;;;;;4.75;1.10;;;;;;;;;;4975062;28;20026;-70
2021/12/29 06:11:00;;;;;;;3.15;1.02;;;;;;;;;;4975596;28;20601;-72
2021/12/29 06:13:45;;;;;;;4.93;1.30;;;;;;;;;;4975056;28;20022;-72
2021/12/29 06:16:31;;;;;;;7.40;1.15;;;;;;;;;;4975248;28;20461;-73
2021/12/29 06:19:16;;;;;;;3.25;1.10;;;;;;;;;;4978114;28;20100;-71
2021/12/29 06:22:01;;;;;;;3.13;1.00;;;;;;;;;;4978942;28;20137;-71
2021/12/29 06:24:51;;;;;;;5.47;1.10;;;;;;;;;;4988242;28;20049;-71
2021/12/29 06:27:37;;;;;;;5.20;1.13;;;;;;;;;;4975474;28;20379;-67
2021/12/29 06:30:22;;;;;;;5.00;1.33;;;;;;;;;;4974831;28;20022;-63
2021/12/29 06:33:07;;;;;;;4.40;1.27;;;;;;;;;;4975172;28;20038;-64
2021/12/29 06:35:53;;;;;;;1.92;0.90;;;;;;;;;;4988161;28;20034;-62
2021/12/29 06:38:38;;;;;;;2.35;0.90;;;;;;;;;;4975135;28;20124;-62
2021/12/29 06:41:23;;;;;;;4.60;1.42;;;;;;;;;;4960824;28;20081;-61
2021/12/29 06:44:08;;;;;;;2.25;1.05;;;;;;;;;;4988725;28;20110;-64
2021/12/29 06:46:54;;;;;;;3.40;1.38;;;;;;;;;;4975257;28;20409;-68
2021/12/29 06:49:39;;;;;;;5.55;1.25;;;;;;;;;;4988259;28;20034;-65
2021/12/29 06:52:24;;;;;;;5.45;1.30;;;;;;;;;;4977362;28;20370;-63
2021/12/29 06:55:10;;;;;;;7.65;1.35;;;;;;;;;;4971254;28;20061;-63
2021/12/29 06:57:55;;;;;;;9.32;1.38;;;;;;;;;;4975416;28;20014;-65
2021/12/29 07:00:40;;;;;;;2.22;1.10;;;;;;;;;;4974535;28;20145;-64
2021/12/29 07:03:26;;;;;;;3.55;1.95;;;;;;;;;;4975092;28;20105;-63
2021/12/29 07:06:11;;;;;;;5.60;1.60;;;;;;;;;;4974515;28;20014;-66
2021/12/29 07:08:56;;;;;;;3.25;1.00;;;;;;;;;;4988393;28;20096;-71
2021/12/29 07:11:42;;;;;;;3.72;1.40;;;;;;;;;;4988013;28;20032;-67
2021/12/29 07:14:27;;;;;;;4.65;1.40;;;;;;;;;;4977194;28;20041;-67
2021/12/29 07:17:13;;;;;;;3.65;1.30;;;;;;;;;;4991640;28;20093;-69
2021/12/29 07:19:58;;;;;;;8.63;1.58;;;;;;;;;;4992211;28;20039;-68
2021/12/29 07:22:43;;;;;;;6.13;1.30;;;;;;;;;;4992442;28;20143;-67
2021/12/29 07:25:29;;;;;;;6.20;1.40;;;;;;;;;;4984197;28;20030;-63
2021/12/29 07:28:14;;;;;;;3.55;1.20;;;;;;;;;;4964499;28;20382;-72
2021/12/29 07:30:59;;;;;;;3.45;1.45;;;;;;;;;;4979187;28;20034;-72
2021/12/29 07:33:45;;;;;;;5.25;1.58;;;;;;;;;;4965108;28;20250;-74
2021/12/29 07:36:30;;;;;;;15.55;8.55;;;;;;;;;;4978077;28;20089;-74
2021/12/29 07:39:16;;;;;;;10.60;5.05;;;;;;;;;;4978403;28;20038;-72
2021/12/29 07:42:01;;;;;;;8.13;2.10;;;;;;;;;;4977729;28;20022;-62
2021/12/29 07:44:47;;;;;;;6.75;2.75;;;;;;;;;;4991960;28;20148;-74
2021/12/29 07:47:40;;;;;;;5.15;3.05;;;;;;;;;;4977245;28;20469;-74
2021/12/29 07:50:25;;;;;;;5.28;3.03;;;;;;;;;;4991851;28;20026;-73
2021/12/29 07:53:10;;;;;;;7.18;2.45;;;;;;;;;;4977497;28;20018;-72
2021/12/29 07:55:55;;;;;;;5.93;2.35;;;;;;;;;;4997515;28;20034;-76
2021/12/29 07:58:40;;;;;;;6.00;1.40;;;;;;;;;;4991495;28;20892;-75
2021/12/29 08:01:26;;;;;;;6.82;1.55;;;;;;;;;;4978139;28;20031;-72
2021/12/29 08:04:13;;;;;;;3.22;1.33;;;;;;;;;;4984826;28;20038;-69
2021/12/29 08:06:58;;;;;;;6.70;1.60;;;;;;;;;;4959111;28;20031;-68
2021/12/29 08:09:44;;;;;;;2.58;1.10;;;;;;;;;;4974892;28;20062;-71
2021/12/29 08:12:29;;;;;;;6.13;1.15;;;;;;;;;;4978010;28;20030;-67
2021/12/29 08:15:14;;;;;;;10.40;5.50;;;;;;;;;;4978085;28;20038;-68
2021/12/29 08:18:02;;;;;;;5.55;2.95;;;;;;;;;;4978181;28;20036;-69
2021/12/29 08:20:47;;;;;;;4.70;1.50;;;;;;;;;;4971982;28;20081;-75
2021/12/29 08:23:32;;;;;;;2.55;1.48;;;;;;;;;;4974607;28;20030;-75
2021/12/29 08:26:19;;;;;;;7.28;2.00;;;;;;;;;;4977623;28;20042;-75
2021/12/29 08:29:04;;;;;;;3.35;1.48;;;;;;;;;;4984246;28;20034;-73
2021/12/29 08:31:49;;;;;;;8.27;2.63;;;;;;;;;;4963864;28;20489;-72
2021/12/29 08:34:34;;;;;;;9.77;2.15;;;;;;;;;;4970306;28;20489;-73
2021/12/29 08:37:20;;;;;;;8.27;3.42;;;;;;;;;;4945054;28;20077;-69
2021/12/29 08:40:07;;;;;;;35.88;25.08;;;;;;;;;;4974624;28;20470;-66
2021/12/29 08:42:55;;;;;;;6.63;3.28;;;;;;;;;;4963912;28;20038;-68
2021/12/29 08:45:42;;;;;;;5.75;1.92;;;;;;;;;;4976036;28;20473;-67
2021/12/29 08:48:28;;;;;;;3.65;1.80;;;;;;;;;;4977227;28;20162;-68
2021/12/29 08:51:13;;;;;;;3.67;1.60;;;;;;;;;;4989823;28;20453;-67
2021/12/29 08:53:59;;;;;;;57.63;36.72;;;;;;;;;;4976449;28;20030;-68
2021/12/29 08:56:45;;;;;;;20.48;13.13;;;;;;;;;;4976399;28;20037;-69
2021/12/29 08:59:30;;;;;;;11.00;5.65;;;;;;;;;;4981178;28;20022;-73
2021/12/29 09:02:15;;;;;;;3.88;1.60;;;;;;;;;;4979108;28;20465;-73
2021/12/29 09:05:01;;;;;;;4.55;1.58;;;;;;;;;;4972175;28;20039;-72
2021/12/29 09:07:46;;;;;;;4.07;1.10;;;;;;;;;;4963602;28;20541;-73
2021/12/29 09:10:32;;;;;;;3.60;1.95;;;;;;;;;;4989390;28;20053;-75
2021/12/29 09:13:17;;;;;;;8.18;2.40;;;;;;;;;;4990416;28;20061;-74
2021/12/29 09:16:03;;;;;;;3.83;1.73;;;;;;;;;;4976340;28;20030;-67
2021/12/29 09:18:49;;;;;;;6.43;1.80;;;;;;;;;;4976543;28;20081;-69
2021/12/29 09:21:34;;;;;;;3.95;1.60;;;;;;;;;;4989110;28;20033;-68
2021/12/29 09:24:20;;;;;;;11.25;2.20;;;;;;;;;;4976011;28;20454;-68
2021/12/29 09:27:05;;;;;;;5.15;1.85;;;;;;;;;;4989312;28;20461;-68
2021/12/29 09:29:55;;;;;;;5.70;1.80;;;;;;;;;;4975957;28;20473;-68
2021/12/29 09:32:40;;;;;;;4.85;1.60;;;;;;;;;;4981637;28;20034;-64
2021/12/29 09:35:27;;;;;;;7.13;2.63;;;;;;;;;;4970524;28;20053;-76
2021/12/29 09:38:12;;;;;;;4.03;1.45;;;;;;;;;;4959795;28;20038;-72
2021/12/29 09:40:58;;;;;;;2.78;1.48;;;;;;;;;;4989150;28;20495;-72
2021/12/29 09:43:44;;;;;;;8.88;3.03;;;;;;;;;;4989414;28;20036;-75
2021/12/29 09:46:30;;;;;;;7.00;2.50;;;;;;;;;;4989098;28;20109;-75
2021/12/29 09:49:16;;;;;;;6.97;2.45;;;;;;;;;;4970305;28;20027;-74
2021/12/29 09:52:01;;;;;;;5.85;1.40;;;;;;;;;;4959334;28;20034;-75
2021/12/29 09:54:46;;;;;;;5.75;1.95;;;;;;;;;;4989136;28;20477;-68
2021/12/29 09:57:32;;;;;;;5.00;1.30;;;;;;;;;;4975298;28;20373;-69
2021/12/29 10:00:24;;;;;;;6.60;1.70;;;;;;;;;;4989225;28;20448;-68
2021/12/29 10:03:12;;;;;;;4.38;1.90;;;;;;;;;;4990964;28;20030;-68
2021/12/29 10:05:58;;;;;;;5.88;1.80;;;;;;;;;;4979635;28;20044;-69
2021/12/29 10:08:47;;;;;;;5.28;2.38;;;;;;;;;;4961480;28;20035;-71
2021/12/29 10:11:36;;;;;;;2.67;1.13;;;;;;;;;;4976046;28;20023;-75
2021/12/29 10:14:21;;;;;;;43.50;30.98;;;;;;;;;;4974710;28;20062;-74
2021/12/29 10:17:11;;;;;;;48.90;35.17;;;;;;;;;;4975710;28;20040;-75
2021/12/29 10:20:00;;;;;;;11.30;4.47;;;;;;;;;;4974991;28;20056;-75
2021/12/29 10:22:46;;;;;;;;;;;;;;;;;;4962292;28;20038;-75
2021/12/29 10:25:31;;;;;;;3.85;1.35;;;;;;;;;;4974857;28;20377;-75
2021/12/29 10:28:24;;;;;;;5.18;2.10;;;;;;;;;;4974719;28;20038;-74
2021/12/29 10:31:15;;;;;;;5.20;1.70;;;;;;;;;;4975505;28;20045;-64
2021/12/29 10:34:02;;;;;;;7.57;1.58;;;;;;;;;;4974526;28;20038;-65
2021/12/29 10:36:55;;;;;;;5.40;1.73;;;;;;;;;;4996813;28;20425;-65
2021/12/29 10:39:43;;;;;;;7.22;2.15;;;;;;;;;;4974164;28;20031;-64
2021/12/29 10:42:28;;;;;;;5.18;1.63;;;;;;;;;;4988676;28;20030;-64
2021/12/29 10:45:13;;;;;;;4.63;1.73;;;;;;;;;;4974402;28;20036;-68
2021/12/29 10:47:59;;;;;;;4.65;1.67;;;;;;;;;;4988906;28;20034;-71
2021/12/29 10:50:57;;;;;;;7.25;1.92;;;;;;;;;;4978298;28;20022;-63
2021/12/29 10:53:42;;;;;;;4.38;1.60;;;;;;;;;;4992286;28;20034;-63
2021/12/29 10:56:29;;;;;;;4.68;1.45;;;;;;;;;;4992161;28;20392;-65
2021/12/29 10:59:23;;;;;;;4.50;1.65;;;;;;;;;;4978985;28;20026;-63
2021/12/29 11:02:10;;;;;;;6.28;3.17;;;;;;;;;;4977857;28;20037;-67
2021/12/29 11:04:56;;;;;;;41.38;28.80;;;;;;;;;;4962214;28;20454;-74
2021/12/29 11:07:43;;;;;;;8.40;4.07;;;;;;;;;;4983861;28;20034;-70
2021/12/29 11:10:28;;;;;;;9.00;2.22;;;;;;;;;;4979615;28;20485;-70
2021/12/29 11:13:27;;;;;;;4.97;1.60;;;;;;;;;;4965644;28;20101;-69
2021/12/29 11:16:13;;;;;;;3.95;1.60;;;;;;;;;;4991666;28;20096;-69
2021/12/29 11:18:58;;;;;;;4.53;1.88;;;;;;;;;;4978921;28;20022;-70
2021/12/29 11:21:43;;;;;;;6.20;1.98;;;;;;;;;;4991353;28;20132;-70
2021/12/29 11:24:28;;;;;;;9.95;2.15;;;;;;;;;;4978387;28;20481;-69
2021/12/29 11:27:15;;;;;;;8.23;2.55;;;;;;;;;;4977728;28;20038;-63
2021/12/29 11:30:11;;;;;;;18.13;10.98;;;;;;;;;;4964980;28;20030;-61
2021/12/29 11:33:05;;;;;;;42.25;29.88;;;;;;;;;;4964408;28;20073;-62
2021/12/29 11:35:52;;;;;;;6.72;2.60;;;;;;;;;;4977614;28;20034;-62
2021/12/29 11:38:37;;;;;;;4.38;1.80;;;;;;;;;;4978869;28;20054;-65
2021/12/29 11:41:22;;;;;;;7.57;1.50;;;;;;;;;;4983777;28;20108;-69
2021/12/29 11:44:07;;;;;;;3.67;1.17;;;;;;;;;;4978038;28;20458;-76
2021/12/29 11:46:53;;;;;;;4.20;1.58;;;;;;;;;;4964871;28;20430;-73
2021/12/29 11:49:38;;;;;;;4.50;1.50;;;;;;;;;;4991593;28;20038;-74
2021/12/29 11:52:30;;;;;;;4.22;1.55;;;;;;;;;;4977300;28;20037;-73
2021/12/29 11:55:35;;;;;;;4.32;1.63;;;;;;;;;;4977463;28;20034;-74
2021/12/29 11:58:20;;;;;;;3.45;1.20;;;;;;;;;;4977245;28;20025;-73
2021/12/29 12:01:11;;;;;;;4.00;1.27;;;;;;;;;;4977596;28;20113;-67
2021/12/29 12:03:57;;;;;;;4.00;1.33;;;;;;;;;;4970477;28;20035;-63
2021/12/29 12:06:44;;;;;;;4.00;1.38;;;;;;;;;;4971834;28;20034;-63
2021/12/29 12:09:42;;;;;;;7.60;1.65;;;;;;;;;;4971477;28;20038;-62
2021/12/29 12:12:36;;;;;;;7.90;1.83;;;;;;;;;;4982382;28;20176;-63
2021/12/29 12:15:29;;;;;;;4.78;1.73;;;;;;;;;;4977411;28;20449;-62
2021/12/29 12:18:14;;;;;;;4.55;1.50;;;;;;;;;;4976407;28;20488;-70
2021/12/29 12:20:59;;;;;;;30.33;20.15;;;;;;;;;;4977645;28;20038;-69
2021/12/29 12:23:44;;;;;;;7.43;2.47;;;;;;;;;;4971380;28;20042;-66
2021/12/29 12:26:30;;;;;;;6.93;2.67;;;;;;;;;;4971800;28;20438;-67
2021/12/29 12:29:15;;;;;;;5.88;1.90;;;;;;;;;;4976674;28;20038;-68
2021/12/29 12:32:03;;;;;;;7.32;1.70;;;;;;;;;;4963865;28;20385;-66
2021/12/29 12:34:57;;;;;;;3.72;1.50;;;;;;;;;;4961668;28;20035;-67
2021/12/29 12:37:45;;;;;;;8.18;2.22;;;;;;;;;;4971226;28;20469;-73
2021/12/29 12:40:31;;;;;;;6.10;2.10;;;;;;;;;;4986371;28;20039;-67
2021/12/29 12:43:17;;;;;;;6.75;2.45;;;;;;;;;;4979809;28;20063;-70
2021/12/29 12:46:02;;;;;;;5.63;2.03;;;;;;;;;;4961521;28;20035;-70
2021/12/29 12:48:47;;;;;;;5.40;1.73;;;;;;;;;;4959649;28;20065;-68
2021/12/29 12:51:33;;;;;;;6.10;2.35;;;;;;;;;;4976893;28;20034;-66
2021/12/29 12:54:19;;;;;;;9.25;2.42;;;;;;;;;;4989433;28;20038;-67
2021/12/29 12:57:04;;;;;;;7.93;2.42;;;;;;;;;;4990608;28;20114;-73
2021/12/29 12:59:49;;;;;;;7.00;2.40;;;;;;;;;;4975819;28;20040;-73
2021/12/29 13:02:36;;;;;;;6.38;2.50;;;;;;;;;;4989667;28;20373;-73
2021/12/29 13:05:26;;;;;;;6.85;2.42;;;;;;;;;;4975959;28;20080;-71
2021/12/29 13:08:11;;;;;;;8.43;2.70;;;;;;;;;;4976429;28;20101;-75
2021/12/29 13:10:56;;;;;;;10.35;2.45;;;;;;;;;;4974758;28;20030;-75
2021/12/29 13:13:44;;;;;;;10.85;3.00;;;;;;;;;;4976308;28;20026;-72
2021/12/29 13:16:30;;;;;;;12.50;2.85;;;;;;;;;;4983516;28;20026;-62
2021/12/29 13:19:15;;;;;;;12.48;2.63;;;;;;;;;;4989712;28;20030;-63
2021/12/29 13:22:02;;;;;;;7.53;2.15;;;;;;;;;;4975133;28;20030;-62
2021/12/29 13:24:47;;;;;;;8.60;3.05;;;;;;;;;;4972617;28;20026;-64
2021/12/29 13:27:32;;;;;;;11.25;2.75;;;;;;;;;;4956895;28;20643;-64
2021/12/29 13:30:18;;;;;;;14.98;5.38;;;;;;;;;;4955509;28;20031;-62
2021/12/29 13:33:03;;;;;;;14.93;6.47;;;;;;;;;;4989857;28;20030;-61
2021/12/29 13:35:50;;;;;;;11.35;3.20;;;;;;;;;;4989069;28;20061;-61
2021/12/29 13:38:36;;;;;;;8.57;2.53;;;;;;;;;;4989654;28;20374;-64
2021/12/29 13:41:24;;;;;;;10.85;2.42;;;;;;;;;;4988686;28;20097;-63
2021/12/29 13:44:10;;;;;;;10.90;2.33;;;;;;;;;;4975966;28;20029;-63
2021/12/29 13:46:55;;;;;;;7.43;2.45;;;;;;;;;;4976481;28;20290;-64
2021/12/29 13:49:40;;;;;;;9.63;2.60;;;;;;;;;;4967961;28;20061;-72
2021/12/29 13:52:25;;;;;;;5.72;1.77;;;;;;;;;;4975628;28;20339;-66
2021/12/29 13:55:11;;;;;;;8.68;2.22;;;;;;;;;;4975465;28;20041;-69
2021/12/29 13:57:57;;;;;;;7.65;2.78;;;;;;;;;;4969467;28;20026;-68
2021/12/29 14:00:43;;;;;;;6.25;1.88;;;;;;;;;;4976640;28;20065;-66
2021/12/29 14:03:29;;;;;;;7.82;2.05;;;;;;;;;;4982548;28;20117;-68
2021/12/29 14:06:15;;;;;;;10.63;1.95;;;;;;;;;;4983477;28;20391;-66
2021/12/29 14:09:00;;;;;;;7.35;1.90;;;;;;;;;;4969711;28;20038;-72
2021/12/29 14:11:46;;;;;;;6.43;2.00;;;;;;;;;;4956033;28;20089;-66
2021/12/29 14:14:31;;;;;;;5.97;1.80;;;;;;;;;;4975273;28;20034;-67
2021/12/29 14:17:22;;;;;;;3.17;1.50;;;;;;;;;;4988289;28;20026;-70
2021/12/29 14:20:09;;;;;;;6.20;1.70;;;;;;;;;;4968351;28;20541;-68
2021/12/29 14:23:01;;;;;;;5.03;1.60;;;;;;;;;;4961049;28;20025;-67
2021/12/29 14:25:48;;;;;;;4.82;1.73;;;;;;;;;;4988718;28;20034;-66
2021/12/29 14:28:33;;;;;;;6.88;1.42;;;;;;;;;;4987924;28;20034;-70
2021/12/29 14:31:19;;;;;;;7.22;1.73;;;;;;;;;;4975386;28;20504;-71
2021/12/29 14:34:05;;;;;;;8.07;2.15;;;;;;;;;;4968776;28;20074;-71
2021/12/29 14:36:53;;;;;;;2.92;1.10;;;;;;;;;;4942750;28;20490;-71
2021/12/29 14:39:41;;;;;;;6.90;1.50;;;;;;;;;;4974849;28;20022;-71
2021/12/29 14:42:29;;;;;;;4.40;2.08;;;;;;;;;;4975359;28;20141;-71
2021/12/29 14:45:15;;;;;;;5.30;1.77;;;;;;;;;;4988316;28;20034;-66
2021/12/29 14:48:05;;;;;;;30.33;20.92;;;;;;;;;;4975365;28;20034;-75
2021/12/29 14:50:51;;;;;;;8.82;3.97;;;;;;;;;;4970602;28;20027;-73
2021/12/29 14:53:36;;;;;;;6.72;2.00;;;;;;;;;;4963022;28;20627;-75
2021/12/29 14:56:24;;;;;;;6.13;1.67;;;;;;;;;;4975148;28;20030;-72
2021/12/29 14:59:13;;;;;;;4.65;1.65;;;;;;;;;;4988232;28;20426;-74
2021/12/29 15:02:06;;;;;;;5.60;1.60;;;;;;;;;;4962038;28;20026;-73
2021/12/29 15:05:02;;;;;;;4.60;1.67;;;;;;;;;;4974724;28;20033;-70
2021/12/29 15:07:49;;;;;;;4.60;1.40;;;;;;;;;;4975110;28;20034;-69
2021/12/29 15:10:39;;;;;;;7.35;2.15;;;;;;;;;;4961626;28;20390;-66
2021/12/29 15:13:28;;;;;;;4.43;1.30;;;;;;;;;;4955801;28;20050;-67
2021/12/29 15:16:15;;;;;;;5.07;1.60;;;;;;;;;;4985544;28;20034;-66
2021/12/29 15:19:00;;;;;;;3.80;1.60;;;;;;;;;;4988492;28;20033;-71
2021/12/29 15:21:45;;;;;;;6.82;1.42;;;;;;;;;;4987609;28;20456;-67
2021/12/29 15:24:31;;;;;;;3.30;1.70;;;;;;;;;;4996214;28;20046;-70
2021/12/29 15:27:17;;;;;;;26.90;16.80;;;;;;;;;;4974715;28;20038;-70
2021/12/29 15:30:02;;;;;;;10.27;6.75;;;;;;;;;;4974098;28;20065;-69
2021/12/29 15:32:48;;;;;;;6.05;2.30;;;;;;;;;;4974656;28;20676;-70
2021/12/29 15:35:34;;;;;;;3.38;1.55;;;;;;;;;;4990081;28;20026;-69
2021/12/29 15:38:21;;;;;;;3.78;1.50;;;;;;;;;;4978535;28;20105;-69
2021/12/29 15:41:09;;;;;;;3.25;1.40;;;;;;;;;;4977396;28;20505;-67
2021/12/29 15:43:54;;;;;;;3.03;1.52;;;;;;;;;;4964866;28;20026;-68
2021/12/29 15:46:40;;;;;;;5.75;1.55;;;;;;;;;;4977421;28;20125;-67
2021/12/29 15:49:25;;;;;;;6.72;2.10;;;;;;;;;;4991607;28;20437;-68
2021/12/29 15:52:10;;;;;;;4.78;1.85;;;;;;;;;;4991108;28;20379;-66
2021/12/29 15:54:56;;;;;;;1.85;1.33;;;;;;;;;;4992600;28;20038;-67
2021/12/29 15:57:42;;;;;;;5.97;1.48;;;;;;;;;;4996099;28;20038;-74
2021/12/29 16:00:29;;;;;;;4.57;1.63;;;;;;;;;;4991447;28;20509;-67
2021/12/29 16:03:14;;;;;;;3.97;1.70;;;;;;;;;;4971903;28;20056;-62
2021/12/29 16:06:01;;;;;;;4.47;2.10;;;;;;;;;;4978057;28;20019;-64
2021/12/29 16:08:46;;;;;;;3.50;1.83;;;;;;;;;;4958184;28;20478;-63
2021/12/29 16:11:31;;;;;;;3.70;1.60;;;;;;;;;;4946280;28;20073;-62
2021/12/29 16:14:16;;;;;;;6.15;2.03;;;;;;;;;;4977924;28;20042;-62
2021/12/29 16:17:02;;;;;;;6.13;1.92;;;;;;;;;;4977414;28;20168;-64
2021/12/29 16:19:47;;;;;;;3.72;1.92;;;;;;;;;;4991466;28;20473;-62
2021/12/29 16:22:32;;;;;;;11.35;6.93;;;;;;;;;;4963438;28;20034;-62
2021/12/29 16:25:18;;;;;;;15.93;10.80;;;;;;;;;;4991109;28;20437;-62
2021/12/29 16:28:03;;;;;;;7.28;3.08;;;;;;;;;;4963773;28;20049;-61
2021/12/29 16:30:48;;;;;;;5.13;2.00;;;;;;;;;;4975824;28;20023;-61
2021/12/29 16:33:34;;;;;;;2.60;1.80;;;;;;;;;;4976620;28;20117;-61
2021/12/29 16:36:21;;;;;;;3.42;1.80;;;;;;;;;;4977663;28;20022;-68
2021/12/29 16:39:06;;;;;;;2.22;1.70;;;;;;;;;;4989915;28;20076;-71
2021/12/29 16:41:51;;;;;;;3.47;2.15;;;;;;;;;;4984911;28;20431;-72